Latest Weather Observations for Busselton Jetty

IDW60801

Issued at 3:02 pm WST Saturday 28 February 2015 (issued every 30 minutes, with the page automatically refreshed every 10 minutes)

About weather observations | Map of weather stations | Latest weather observations for WA | Other Formats
Station Details ID: 009937 Name: BUSSELTON JETTY Lat: -33.63 Lon: 115.34 Height: 3.0 m
Data from the previous 72 hours. | See also: Recent months for locations in Western Australia
Date/Time
WST
Temp
°C
App
Temp
°C
Dew
Point
Rel
Hum
%
Delta-T
°C
Wind Press
QNH
hPa
Press
MSL
hPa
Rain
since 9 am
mm
Dir
 
Spd
km/h
Gust
km/h
Spd
kts
Gust
kts
28/03:00pm - - - - - SSW 15 28 8 15 - - -
28/02:30pm - - - - - ESE 9 13 5 7 - - -
28/02:00pm - - - - - ESE 15 28 8 15 - - -
28/01:30pm - - - - - SE 22 33 12 18 - - -
28/01:00pm - - - - - SE 17 28 9 15 - - -
28/12:30pm - - - - - SE 17 26 9 14 - - -
28/12:00pm - - - - - SSE 19 30 10 16 - - -
28/11:30am - - - - - SSE 20 30 11 16 - - -
28/11:00am - - - - - SSE 22 35 12 19 - - -
28/10:30am - - - - - SSE 22 32 12 17 - - -
28/10:00am - - - - - SSE 26 32 14 17 - - -
28/09:30am - - - - - SSE 33 39 18 21 - - -
28/09:00am - - - - - SSE 33 41 18 22 - - -
28/08:30am - - - - - SSE 32 37 17 20 - - -
28/08:00am - - - - - SSE 28 32 15 17 - - -
28/07:30am - - - - - SSE 22 28 12 15 - - -
28/07:00am - - - - - S 20 24 11 13 - - -
28/06:30am - - - - - S 20 26 11 14 - - -
28/06:00am - - - - - SSW 22 28 12 15 - - -
28/05:30am - - - - - SSW 19 24 10 13 - - -
28/05:00am - - - - - S 17 22 9 12 - - -
28/04:30am - - - - - SSE 17 22 9 12 - - -
28/04:00am - - - - - SSE 15 19 8 10 - - -
28/03:30am - - - - - S 17 19 9 10 - - -
28/03:00am - - - - - S 15 20 8 11 - - -
28/02:30am - - - - - S 17 24 9 13 - - -
28/02:00am - - - - - S 17 22 9 12 - - -
28/01:30am - - - - - SSW 17 24 9 13 - - -
28/01:00am - - - - - SSW 13 17 7 9 - - -
28/12:30am - - - - - SSW 15 20 8 11 - - -
28/12:00am - - - - - S 17 19 9 10 - - -
 
Date/Time
WST
Temp
°C
App
Temp
°C
Dew
Point
Rel
Hum
%
Delta-T
°C
Wind Press
QNH
hPa
Press
MSL
hPa
Rain
since 9 am
mm
Dir
 
Spd
km/h
Gust
km/h
Spd
kts
Gust
kts
27/11:30pm - - - - - S 19 24 10 13 - - -
27/11:00pm - - - - - S 20 26 11 14 - - -
27/10:30pm - - - - - S 24 30 13 16 - - -
27/10:00pm - - - - - S 28 35 15 19 - - -
27/09:30pm - - - - - S 30 41 16 22 - - -
27/09:00pm - - - - - SSW 30 39 16 21 - - -
27/08:30pm - - - - - SSW 33 43 18 23 - - -
27/08:00pm - - - - - SSW 32 39 17 21 - - -
27/07:30pm - - - - - SSW 32 39 17 21 - - -
27/07:00pm - - - - - SSW 32 39 17 21 - - -
27/06:30pm - - - - - SW 32 39 17 21 - - -
27/06:00pm - - - - - SSW 33 41 18 22 - - -
27/05:30pm - - - - - SSW 33 41 18 22 - - -
27/05:00pm - - - - - WSW 30 37 16 20 - - -
27/04:30pm - - - - - WSW 35 43 19 23 - - -
27/04:00pm - - - - - WSW 32 37 17 20 - - -
27/03:30pm - - - - - WSW 33 41 18 22 - - -
27/03:00pm - - - - - WSW 32 48 17 26 - - -
27/02:55pm - - - - - W 30 48 16 26 - - -
27/02:30pm - - - - - W 28 33 15 18 - - -
27/02:00pm - - - - - WSW 28 41 15 22 - - -
27/01:32pm - - - - - WSW 28 46 15 25 - - -
27/01:30pm - - - - - WSW 28 35 15 19 - - -
27/01:00pm - - - - - WSW 28 37 15 20 - - -
27/12:30pm - - - - - SW 22 30 12 16 - - -
27/12:00pm - - - - - WSW 24 32 13 17 - - -
27/11:30am - - - - - SW 20 28 11 15 - - -
27/11:00am - - - - - SW 20 32 11 17 - - -
27/10:30am - - - - - WSW 28 37 15 20 - - -
27/10:00am - - - - - SW 26 33 14 18 - - -
27/09:30am - - - - - SW 26 32 14 17 - - -
27/09:00am - - - - - SW 24 30 13 16 - - -
27/08:30am - - - - - SW 33 41 18 22 - - -
27/08:00am - - - - - SW 32 41 17 22 - - -
27/07:30am - - - - - SW 28 37 15 20 - - -
27/07:00am - - - - - SW 30 35 16 19 - - -
27/06:30am - - - - - SW 30 33 16 18 - - -
27/06:00am - - - - - SW 26 33 14 18 - - -
27/05:30am - - - - - SW 32 37 17 20 - - -
27/05:00am - - - - - SW 28 35 15 19 - - -
27/04:30am - - - - - WSW 28 32 15 17 - - -
27/04:00am - - - - - SW 30 37 16 20 - - -
27/03:30am - - - - - SSW 22 26 12 14 - - -
27/03:00am - - - - - SW 28 35 15 19 - - -
27/02:30am - - - - - SW 32 39 17 21 - - -
27/02:00am - - - - - SW 32 41 17 22 - - -
27/01:30am - - - - - SW 32 41 17 22 - - -
27/01:00am - - - - - SW 32 37 17 20 - - -
27/12:30am - - - - - SW 26 32 14 17 - - -
27/12:00am - - - - - SW 19 26 10 14 - - -
 
Date/Time
WST
Temp
°C
App
Temp
°C
Dew
Point
Rel
Hum
%
Delta-T
°C
Wind Press
QNH
hPa
Press
MSL
hPa
Rain
since 9 am
mm
Dir
 
Spd
km/h
Gust
km/h
Spd
kts
Gust
kts
26/11:30pm - - - - - SSW 22 30 12 16 - - -
26/11:00pm - - - - - SSW 22 28 12 15 - - -
26/10:30pm - - - - - SSW 22 28 12 15 - - -
26/10:00pm - - - - - SSW 26 33 14 18 - - -
26/09:30pm - - - - - SSW 20 32 11 17 - - -
26/09:00pm - - - - - SSW 28 33 15 18 - - -
26/08:30pm - - - - - SSW 28 33 15 18 - - -
26/08:00pm - - - - - SSW 28 33 15 18 - - -
26/07:30pm - - - - - SSW 30 37 16 20 - - -
26/07:00pm - - - - - SSW 30 35 16 19 - - -
26/06:30pm - - - - - SSW 33 41 18 22 - - -
26/06:00pm - - - - - SSW 33 41 18 22 - - -
26/05:30pm - - - - - SW 32 37 17 20 - - -
26/05:00pm - - - - - SW 28 33 15 18 - - -
26/04:30pm - - - - - SW 28 33 15 18 - - -
26/04:00pm - - - - - SW 28 33 15 18 - - -
26/03:30pm - - - - - WSW 24 28 13 15 - - -
26/03:00pm - - - - - NW 22 24 12 13 - - -
26/02:30pm - - - - - NW 24 26 13 14 - - -
26/02:00pm - - - - - NW 22 26 12 14 - - -
26/01:30pm - - - - - NNW 20 24 11 13 - - -
26/01:00pm - - - - - NNW 24 26 13 14 - - -
26/12:30pm - - - - - NE 15 17 8 9 - - -
26/12:00pm - - - - - NE 9 11 5 6 - - -
26/11:30am - - - - - NE 6 7 3 4 - - -
26/11:00am - - - - - SSW 15 19 8 10 - - -
26/10:30am - - - - - ENE 7 9 4 5 - - -
26/10:00am - - - - - ESE 20 26 11 14 - - -
26/09:30am - - - - - SE 20 24 11 13 - - -
26/09:00am - - - - - S 15 22 8 12 - - -
26/08:30am - - - - - SSW 19 24 10 13 - - -
26/08:00am - - - - - SE 24 30 13 16 - - -
26/07:30am - - - - - SSW 22 26 12 14 - - -
26/07:00am - - - - - S 17 22 9 12 - - -
26/06:30am - - - - - S 22 26 12 14 - - -
26/06:00am - - - - - S 17 22 9 12 - - -
26/05:30am - - - - - S 15 20 8 11 - - -
26/05:00am - - - - - SSW 19 22 10 12 - - -
26/04:30am - - - - - SSE 17 19 9 10 - - -
26/04:00am - - - - - SSE 24 28 13 15 - - -
26/03:30am - - - - - SSW 26 28 14 15 - - -
26/03:00am - - - - - SW 22 28 12 15 - - -
26/02:30am - - - - - S 17 28 9 15 - - -
26/02:00am - - - - - S 17 22 9 12 - - -
26/01:30am - - - - - SW 20 28 11 15 - - -
26/01:00am - - - - - S 22 26 12 14 - - -
26/12:30am - - - - - S 17 22 9 12 - - -
26/12:00am - - - - - S 17 20 9 11 - - -
 
Date/Time
WST
Temp
°C
App
Temp
°C
Dew
Point
Rel
Hum
%
Delta-T
°C
Wind Press
QNH
hPa
Press
MSL
hPa
Rain
since 9 am
mm
Dir
 
Spd
km/h
Gust
km/h
Spd
kts
Gust
kts
25/11:30pm - - - - - S 17 20 9 11 - - -
25/11:00pm - - - - - S 17 20 9 11 - - -
25/10:30pm - - - - - SSW 17 22 9 12 - - -
25/10:00pm - - - - - S 22 30 12 16 - - -
25/09:30pm - - - - - SSW 26 30 14 16 - - -
25/09:00pm - - - - - SSW 28 32 15 17 - - -
25/08:30pm - - - - - SSW 32 37 17 20 - - -
25/08:00pm - - - - - S 28 37 15 20 - - -
25/07:30pm - - - - - SSW 30 37 16 20 - - -
25/07:00pm - - - - - S 35 48 19 26 - - -
25/06:30pm - - - - - SSW 33 41 18 22 - - -
25/06:00pm - - - - - SSW 35 44 19 24 - - -
25/05:30pm - - - - - SSW 37 44 20 24 - - -
25/05:00pm - - - - - SW 33 39 18 21 - - -
25/04:30pm - - - - - SW 35 41 19 22 - - -
25/04:00pm - - - - - SSW 32 37 17 20 - - -
25/03:30pm - - - - - SW 28 35 15 19 - - -
25/03:23pm - - - - - SW 28 35 15 19 - - -

Other Formats:

Comma delimited format used in spreadsheet applications
http://www.bom.gov.au/fwo/IDW60801/IDW60801.95602.axf

JavaScript Object Notation format (JSON) in row-major order
http://www.bom.gov.au/fwo/IDW60801/IDW60801.95602.json